New Taiton, Texas
Current Conditions -  °F | °C
As of 5:35 PM on Saturday 22 Nov 2014 (Local Time) from KARM Reporting Station
Thunderstorm Thunderstorm  
Wind Chill: 68°   Ceiling: 3700
Heat Index: 68°   Visibility: 7mi
Dew Point: 66°   Wind: 12mph
Humidity: 94%   Direction: 140°SE
Pressure: 29.8"   Gusts: NA
Location:  29.1916°N, 96.2212°W
Report Text: KARM 222335Z AUTO 14010KT 7SM VCTS SCT030 BKN037 OVC055 20/19 A2980 RMK AO2 LTG DSNT N T02000190
Loading
Personal Weather Stations






























Interactive Weather Map New forecast layout! Learn more

10-Day Weather Forecast

Advertisements
Track Severe Weather on mobile